Eendracht — PDVN — position and weather

sailwx.info

Track history (hours):
 
Tides and Currents Weather Stations Pressure Air Temp Water Temp Dewpoint Dewpoint Depression Visibility Wind Speed Wind Dir Waves Ship Positions

Eendracht (Netherlands)

Last reported at 2015-Jul-24 06:32 UTC. Time now 2015-Jul-28 19:48 UTC.
Position N 58°05' E 006°25'.

Length 59 m; beam 12 m; draft 5 m.

MMSI: 244543000.

Date/timePositionNaut miles runAvg speedWind from/ knotsBaromVisibWave heightAir tempDewpointWater temp
2015-Jul-24 06:32N 58°05' E 006°25'8 8.2
2015-Jul-24 05:33N 58°11' E 006°15'7 7.2
2015-Jul-24 04:33N 58°17' E 006°06'5 4.5
2015-Jul-24 03:33N 58°21' E 006°02'4 3.9
2015-Jul-24 02:33N 58°25' E 005°60'2 2.2
2015-Jul-24 01:33N 58°27' E 005°59'0 0.0
2015-Jul-24 00:33N 58°27' E 005°59'0 0.0
2015-Jul-23 23:32N 58°27' E 005°59'0 0.0
2015-Jul-23 22:32N 58°27' E 005°59'0 0.0
2015-Jul-23 21:32N 58°27' E 005°59'0 0.0
2015-Jul-23 20:32N 58°27' E 005°59'0 0.0
2015-Jul-23 19:32N 58°27' E 005°59'0 0.0
2015-Jul-23 18:32N 58°27' E 005°59'0 0.0
2015-Jul-23 17:32N 58°27' E 005°59'0 0.0
2015-Jul-23 16:32N 58°27' E 005°59'0 0.0
2015-Jul-23 15:32N 58°27' E 005°59'0 0.0
2015-Jul-23 14:32N 58°27' E 005°59'0 0.0
2015-Jul-23 13:32N 58°27' E 005°59'0 0.0
2015-Jul-23 12:32N 58°27' E 005°59'0 0.0
2015-Jul-23 11:32N 58°27' E 005°59'0 0.0
2015-Jul-23 10:32N 58°27' E 005°59'1 1.1
2015-Jul-23 09:34N 58°26' E 005°59'5 4.8
2015-Jul-23 08:33N 58°25' E 005°50'7 7.5
2015-Jul-23 07:33N 58°30' E 005°39'11 7.5
2015-Jul-23 06:05N 58°39' E 005°28'4 7.5
2015-Jul-23 05:33N 58°42' E 005°24'7 7.4
2015-Jul-23 04:33N 58°49' E 005°18'7 7.4
2015-Jul-23 03:33N 58°56' E 005°14'7 6.9
2015-Jul-23 02:33N 59°03' E 005°11'7 6.7
2015-Jul-23 01:33N 59°09' E 005°08'7 6.6
2015-Jul-23 00:33N 59°16' E 005°06'6 6.4
2015-Jul-22 23:33N 59°22' E 005°06'6 6.0
2015-Jul-22 22:33N 59°28' E 005°09'7 6.5
2015-Jul-22 21:33N 59°34' E 005°13'7 6.6
2015-Jul-22 20:33N 59°40' E 005°21'6 6.4
2015-Jul-22 19:33N 59°44' E 005°29'7 6.8
2015-Jul-22 18:33N 59°50' E 005°38'7 6.5
2015-Jul-22 17:33N 59°55' E 005°45'4 0.1
2015-Jul-21 15:26N 59°57' E 005°52'6 7.0
2015-Jul-21 14:34N 59°53' E 005°42'6 5.7
2015-Jul-21 13:33N 59°49' E 005°33'5 5.3
2015-Jul-21 12:32N 59°55' E 005°31'  
Track history (hours):
 
Tides and Currents Weather Stations Pressure Air Temp Water Temp Dewpoint Dewpoint Depression Visibility Wind Speed Wind Dir Waves Ship Positions

Eendracht (Netherlands)

Last reported at 2015-Jul-24 06:32 UTC. Time now 2015-Jul-28 19:48 UTC.
Position N 58°05' E 006°25'.

Length 59 m; beam 12 m; draft 5 m.

MMSI: 244543000.

Date/timePositionNaut miles runAvg speedWind from/ knotsBaromVisibWave heightAir tempDewpointWater temp
2015-Jul-24 06:32N 58°05' E 006°25'8 8.2
2015-Jul-24 05:33N 58°11' E 006°15'7 7.2
2015-Jul-24 04:33N 58°17' E 006°06'5 4.5
2015-Jul-24 03:33N 58°21' E 006°02'4 3.9
2015-Jul-24 02:33N 58°25' E 005°60'2 2.2
2015-Jul-24 01:33N 58°27' E 005°59'0 0.0
2015-Jul-24 00:33N 58°27' E 005°59'0 0.0
2015-Jul-23 23:32N 58°27' E 005°59'0 0.0
2015-Jul-23 22:32N 58°27' E 005°59'0 0.0
2015-Jul-23 21:32N 58°27' E 005°59'0 0.0
2015-Jul-23 20:32N 58°27' E 005°59'0 0.0
2015-Jul-23 19:32N 58°27' E 005°59'0 0.0
2015-Jul-23 18:32N 58°27' E 005°59'0 0.0
2015-Jul-23 17:32N 58°27' E 005°59'0 0.0
2015-Jul-23 16:32N 58°27' E 005°59'0 0.0
2015-Jul-23 15:32N 58°27' E 005°59'0 0.0
2015-Jul-23 14:32N 58°27' E 005°59'0 0.0
2015-Jul-23 13:32N 58°27' E 005°59'0 0.0
2015-Jul-23 12:32N 58°27' E 005°59'0 0.0
2015-Jul-23 11:32N 58°27' E 005°59'0 0.0
2015-Jul-23 10:32N 58°27' E 005°59'1 1.1
2015-Jul-23 09:34N 58°26' E 005°59'5 4.8
2015-Jul-23 08:33N 58°25' E 005°50'7 7.5
2015-Jul-23 07:33N 58°30' E 005°39'11 7.5
2015-Jul-23 06:05N 58°39' E 005°28'4 7.5
2015-Jul-23 05:33N 58°42' E 005°24'7 7.4
2015-Jul-23 04:33N 58°49' E 005°18'7 7.4
2015-Jul-23 03:33N 58°56' E 005°14'7 6.9
2015-Jul-23 02:33N 59°03' E 005°11'7 6.7
2015-Jul-23 01:33N 59°09' E 005°08'7 6.6
2015-Jul-23 00:33N 59°16' E 005°06'6 6.4
2015-Jul-22 23:33N 59°22' E 005°06'6 6.0
2015-Jul-22 22:33N 59°28' E 005°09'7 6.5
2015-Jul-22 21:33N 59°34' E 005°13'7 6.6
2015-Jul-22 20:33N 59°40' E 005°21'6 6.4
2015-Jul-22 19:33N 59°44' E 005°29'7 6.8
2015-Jul-22 18:33N 59°50' E 005°38'7 6.5
2015-Jul-22 17:33N 59°55' E 005°45'4 0.1
2015-Jul-21 15:26N 59°57' E 005°52'6 7.0
2015-Jul-21 14:34N 59°53' E 005°42'6 5.7
2015-Jul-21 13:33N 59°49' E 005°33'5 5.3
2015-Jul-21 12:32N 59°55' E 005°31'  

Dump ship's entire track history